Time;durP1;ratioP1;P1;durP2;ratioP2;P2;SDS_P1;SDS_P2;PMS_P1;PMS_P2;Temp;Humidity;BMP_temperature;BMP_pressure;BME280_temperature;BME280_humidity;BME280_pressure;Samples;Min_cycle;Max_cycle;Signal;HPM_P1;HPM_P2
2022/12/22 03:26:24;;;;;;;32.72;20.00;;;9.70;99.90;;;;;;4996988;28;20053;-88
2022/12/22 03:28:49;;;;;;;33.17;20.05;;;9.60;99.90;;;;;;4997392;28;20022;-87
2022/12/22 03:31:15;;;;;;;35.58;20.77;;;9.70;99.90;;;;;;4998234;28;20049;-88
2022/12/22 03:33:41;;;;;;;33.78;21.33;;;9.60;99.90;;;;;;4993758;28;20523;-87
2022/12/22 03:36:07;;;;;;;37.42;20.45;;;9.70;99.90;;;;;;4979590;28;20046;-88
2022/12/22 03:38:33;;;;;;;36.85;20.80;;;9.70;99.90;;;;;;5008410;28;20057;-87
2022/12/22 03:40:59;;;;;;;35.92;20.10;;;9.70;99.90;;;;;;4988500;28;20022;-87
2022/12/22 03:46:29;;;;;;;34.30;20.13;;;9.70;99.90;;;;;;4987318;28;20084;-88
2022/12/22 03:49:08;;;;;;;35.35;20.77;;;9.70;99.90;;;;;;4979050;28;20144;-87
2022/12/22 03:51:46;;;;;;;45.58;22.67;;;9.70;99.90;;;;;;4979147;28;20058;-88
2022/12/22 03:54:15;;;;;;;40.75;21.50;;;9.70;99.90;;;;;;4979079;28;20449;-88
2022/12/22 03:56:41;;;;;;;40.25;21.92;;;9.70;99.90;;;;;;4991305;28;20112;-87
2022/12/22 03:59:07;;;;;;;46.60;23.92;;;9.60;99.90;;;;;;4991586;28;20466;-87
2022/12/22 04:01:37;;;;;;;42.17;22.10;;;9.60;99.90;;;;;;4976230;28;20046;-88
2022/12/22 04:04:03;;;;;;;46.88;22.88;;;9.70;99.90;;;;;;4977964;28;20080;-87
2022/12/22 04:06:28;;;;;;;41.17;22.02;;;9.70;99.90;;;;;;4976658;28;20030;-86
2022/12/22 04:08:54;;;;;;;55.08;22.88;;;9.60;99.90;;;;;;4995016;28;20568;-87
2022/12/22 04:14:03;;;;;;;51.67;23.90;;;9.60;99.90;;;;;;4993441;28;20045;-88
2022/12/22 04:16:30;;;;;;;53.33;23.00;;;9.60;99.90;;;;;;4978288;28;20487;-87
2022/12/22 04:18:55;;;;;;;61.13;23.52;;;9.60;99.90;;;;;;4974946;28;20270;-87
2022/12/22 04:21:21;;;;;;;53.20;22.65;;;9.60;99.90;;;;;;4977865;28;20034;-88
2022/12/22 04:23:50;;;;;;;61.92;23.98;;;9.60;99.90;;;;;;4982582;28;20133;-88
2022/12/22 04:26:17;;;;;;;62.00;25.27;;;9.60;99.90;;;;;;4972120;28;20058;-88
2022/12/22 04:28:42;;;;;;;52.85;22.38;;;9.60;99.90;;;;;;5001849;28;20148;-88
2022/12/22 04:31:08;;;;;;;47.28;23.35;;;9.60;99.90;;;;;;4990136;28;20127;-88
2022/12/22 04:33:33;;;;;;;60.45;24.00;;;9.70;99.90;;;;;;4981330;28;20125;-89
2022/12/22 04:35:59;;;;;;;62.22;23.48;;;9.60;99.90;;;;;;4981713;28;20022;-88
2022/12/22 04:38:24;;;;;;;97.55;26.98;;;9.60;99.90;;;;;;4993601;28;20057;-88
2022/12/22 04:40:50;;;;;;;49.55;24.42;;;9.70;99.90;;;;;;4978247;28;20487;-88
2022/12/22 04:43:15;;;;;;;54.95;23.25;;;9.70;99.90;;;;;;4978524;28;20088;-88
2022/12/22 04:45:42;;;;;;;103.97;22.55;;;9.70;99.90;;;;;;4976849;28;20447;-88
2022/12/22 04:48:08;;;;;;;191.98;27.33;;;9.60;99.90;;;;;;4991889;28;20105;-89
2022/12/22 04:50:33;;;;;;;134.00;25.92;;;9.60;99.90;;;;;;4987062;28;20022;-89
2022/12/22 04:52:59;;;;;;;158.38;26.67;;;9.60;99.90;;;;;;4994110;28;20042;-89
2022/12/22 04:55:24;;;;;;;59.95;22.77;;;9.60;99.90;;;;;;4978301;28;20030;-89
2022/12/22 04:57:50;;;;;;;61.90;25.15;;;9.60;99.90;;;;;;4977365;28;20164;-90
2022/12/22 05:00:16;;;;;;;215.63;28.63;;;9.70;99.90;;;;;;4983500;28;20125;-89
2022/12/22 05:02:41;;;;;;;87.63;23.08;;;9.60;99.90;;;;;;4994668;28;20038;-88
2022/12/22 05:05:07;;;;;;;109.10;25.13;;;9.60;99.90;;;;;;4991489;28;20019;-90
2022/12/22 05:07:33;;;;;;;98.90;23.98;;;9.60;99.90;;;;;;4981632;28;20120;-88
2022/12/22 05:09:58;;;;;;;117.20;25.70;;;9.60;99.90;;;;;;4997620;28;20383;-88
2022/12/22 05:15:08;;;;;;;110.00;24.33;;;9.60;99.90;;;;;;4999723;28;20030;-91
2022/12/22 05:17:34;;;;;;;108.18;23.80;;;9.60;99.90;;;;;;4980313;28;20027;-90
2022/12/22 05:19:59;;;;;;;81.55;23.95;;;9.60;99.90;;;;;;4982188;28;20069;-89
2022/12/22 05:22:25;;;;;;;70.47;23.02;;;9.60;99.90;;;;;;4980632;28;20038;-90
2022/12/22 05:24:50;;;;;;;213.68;28.27;;;9.60;99.90;;;;;;4980041;28;20368;-89
2022/12/22 05:27:16;;;;;;;158.18;25.98;;;9.60;99.90;;;;;;4980689;28;20490;-90
2022/12/22 05:29:41;;;;;;;383.83;34.30;;;9.70;99.90;;;;;;4980892;28;20030;-90
2022/12/22 05:32:07;;;;;;;291.55;30.63;;;9.60;99.90;;;;;;4981625;28;20092;-88
2022/12/22 05:34:32;;;;;;;235.45;29.35;;;9.60;99.90;;;;;;4998943;28;20034;-90
2022/12/22 05:36:58;;;;;;;141.02;25.40;;;9.60;99.90;;;;;;5001020;28;20152;-89
2022/12/22 05:39:23;;;;;;;192.98;27.85;;;9.60;99.90;;;;;;4997279;28;20031;-89
2022/12/22 05:41:49;;;;;;;89.15;23.63;;;9.60;99.90;;;;;;4998268;28;20049;-90
2022/12/22 05:44:14;;;;;;;258.98;27.52;;;9.60;99.90;;;;;;4998421;28;20467;-88
2022/12/22 05:46:40;;;;;;;238.77;27.55;;;9.60;99.90;;;;;;4985021;28;20476;-88
2022/12/22 05:49:05;;;;;;;105.43;23.10;;;9.60;99.90;;;;;;4998306;28;20042;-89
2022/12/22 05:51:31;;;;;;;335.77;29.90;;;9.60;99.90;;;;;;4980767;28;20025;-88
2022/12/22 05:53:56;;;;;;;103.15;23.00;;;9.60;99.90;;;;;;4997529;28;20026;-89
2022/12/22 05:56:22;;;;;;;93.03;21.58;;;9.60;99.90;;;;;;4995615;28;20027;-89
2022/12/22 05:58:47;;;;;;;82.75;21.08;;;9.60;99.90;;;;;;4989427;28;20023;-89
2022/12/22 06:01:13;;;;;;;93.65;21.65;;;9.60;99.90;;;;;;4991406;28;20098;-89
2022/12/22 06:03:38;;;;;;;102.20;22.27;;;9.50;99.90;;;;;;5001467;28;20030;-89
2022/12/22 06:06:04;;;;;;;88.57;23.00;;;9.50;99.90;;;;;;4990024;28;20033;-90
2022/12/22 06:08:30;;;;;;;117.20;24.55;;;9.50;99.90;;;;;;4975758;28;20400;-89
2022/12/22 06:10:57;;;;;;;57.40;20.58;;;9.50;99.90;;;;;;4988204;28;20041;-89
2022/12/22 06:13:24;;;;;;;59.58;21.08;;;9.50;99.90;;;;;;4983551;28;20398;-89
2022/12/22 06:15:49;;;;;;;54.22;20.15;;;9.40;99.90;;;;;;4997303;28;20261;-88
2022/12/22 06:18:15;;;;;;;49.13;19.20;;;9.50;99.90;;;;;;4996832;28;20491;-88
2022/12/22 06:20:40;;;;;;;47.17;21.02;;;9.40;99.90;;;;;;4993842;28;20033;-88
2022/12/22 06:23:06;;;;;;;53.13;22.02;;;9.40;99.90;;;;;;4980080;28;20058;-89
2022/12/22 06:25:32;;;;;;;52.08;20.95;;;9.40;99.90;;;;;;4989619;28;20038;-89
2022/12/22 06:27:57;;;;;;;52.92;22.25;;;9.40;99.90;;;;;;4994045;28;20074;-89
2022/12/22 06:30:23;;;;;;;56.65;21.63;;;9.30;99.90;;;;;;4976093;28;20027;-89
2022/12/22 06:32:48;;;;;;;58.00;22.75;;;9.30;99.90;;;;;;4990133;28;20022;-89
2022/12/22 06:35:14;;;;;;;56.72;23.85;;;9.40;99.90;;;;;;4985193;28;20545;-89
2022/12/22 06:37:39;;;;;;;58.78;22.67;;;9.30;99.90;;;;;;4994574;28;20037;-89
2022/12/22 06:40:06;;;;;;;60.80;24.35;;;9.40;99.90;;;;;;4980679;28;20483;-89
2022/12/22 06:45:16;;;;;;;58.92;24.40;;;9.40;99.90;;;;;;5001884;28;20041;-90
2022/12/22 06:47:42;;;;;;;59.38;24.90;;;9.30;99.90;;;;;;4994106;28;20026;-89
2022/12/22 06:50:08;;;;;;;63.22;26.70;;;9.30;99.90;;;;;;4995751;28;20026;-90
2022/12/22 06:52:34;;;;;;;65.40;26.08;;;9.30;99.90;;;;;;4980610;28;20102;-90
2022/12/22 06:55:01;;;;;;;73.15;26.45;;;9.30;99.90;;;;;;4979900;28;20484;-90
2022/12/22 06:57:27;;;;;;;65.78;26.10;;;9.30;99.90;;;;;;4978447;28;20628;-89
2022/12/22 06:59:52;;;;;;;64.50;25.65;;;9.30;99.90;;;;;;4976971;28;20023;-89
2022/12/22 07:02:18;;;;;;;70.93;26.15;;;9.30;99.90;;;;;;5001576;28;20089;-89
2022/12/22 07:04:44;;;;;;;64.15;25.13;;;9.30;99.90;;;;;;4985910;28;20041;-88
2022/12/22 07:07:09;;;;;;;64.95;24.00;;;9.30;99.90;;;;;;4968143;28;20034;-89
2022/12/22 07:09:35;;;;;;;65.82;23.95;;;9.30;99.90;;;;;;4981705;28;20045;-90
2022/12/22 07:12:00;;;;;;;62.58;23.55;;;9.20;99.90;;;;;;4977986;28;20022;-89
2022/12/22 07:14:26;;;;;;;61.17;21.75;;;9.20;99.90;;;;;;4995156;28;20041;-89
2022/12/22 07:16:51;;;;;;;63.50;21.50;;;9.20;99.90;;;;;;4975958;28;20042;-88
2022/12/22 07:19:17;;;;;;;70.05;23.05;;;9.10;99.90;;;;;;5010552;28;20027;-90
2022/12/22 07:21:42;;;;;;;63.38;22.13;;;9.10;99.90;;;;;;4979052;28;20541;-90
2022/12/22 07:24:08;;;;;;;68.43;22.33;;;9.10;99.90;;;;;;4979263;28;20034;-91
2022/12/22 07:26:33;;;;;;;76.85;22.70;;;9.00;99.90;;;;;;4994864;28;20030;-90
2022/12/22 07:28:59;;;;;;;71.88;23.08;;;9.00;99.90;;;;;;4981009;28;20073;-90
2022/12/22 07:31:24;;;;;;;72.32;22.20;;;9.00;99.90;;;;;;4996530;28;20154;-90
2022/12/22 07:33:50;;;;;;;67.35;22.13;;;9.00;99.90;;;;;;4997053;28;20085;-91
2022/12/22 07:36:18;;;;;;;87.53;24.98;;;9.00;99.90;;;;;;4995879;28;20471;-90
2022/12/22 07:38:46;;;;;;;84.75;25.55;;;9.00;99.90;;;;;;4978184;28;20077;-91
2022/12/22 07:43:59;;;;;;;65.80;21.65;;;9.00;99.90;;;;;;4982848;28;20102;-92
2022/12/22 07:46:27;;;;;;;81.05;24.80;;;9.00;99.90;;;;;;4974537;28;20070;-93
2022/12/22 07:51:39;;;;;;;89.82;26.65;;;9.00;99.90;;;;;;4981472;28;20030;-94
2022/12/22 07:54:06;;;;;;;77.28;24.67;;;9.00;99.90;;;;;;4994430;28;20026;-92
2022/12/22 07:56:32;;;;;;;103.22;29.17;;;9.00;99.90;;;;;;4976805;28;20023;-93
2022/12/22 07:58:57;;;;;;;90.75;26.08;;;9.00;99.90;;;;;;5000885;28;20015;-93
2022/12/22 08:01:24;;;;;;;91.50;27.75;;;9.00;99.90;;;;;;4980286;28;20495;-91
2022/12/22 08:03:49;;;;;;;90.03;27.13;;;9.00;99.90;;;;;;4991699;28;20034;-92
2022/12/22 08:06:15;;;;;;;90.93;27.70;;;9.00;99.90;;;;;;4979124;28;20027;-93
2022/12/22 08:08:40;;;;;;;88.30;25.23;;;9.00;99.90;;;;;;4992016;28;20125;-92
2022/12/22 08:11:06;;;;;;;78.70;24.02;;;9.00;99.90;;;;;;4973072;28;20023;-93
2022/12/22 08:13:33;;;;;;;81.22;25.65;;;9.00;99.90;;;;;;4993669;28;20061;-94
2022/12/22 08:16:06;;;;;;;90.70;26.88;;;9.00;99.90;;;;;;4983811;28;20035;-94
2022/12/22 08:18:32;;;;;;;82.63;26.77;;;9.00;99.90;;;;;;4995932;28;20027;-92
2022/12/22 08:20:58;;;;;;;72.88;25.60;;;9.00;99.90;;;;;;4996019;28;20384;-92
2022/12/22 08:23:24;;;;;;;77.50;24.85;;;9.00;99.90;;;;;;4992413;28;20030;-91
2022/12/22 08:26:17;;;;;;;73.22;25.45;;;9.00;99.90;;;;;;4977930;28;20389;-93
2022/12/22 08:29:02;;;;;;;81.47;26.10;;;9.00;99.90;;;;;;4974229;28;20407;-91
2022/12/22 08:31:29;;;;;;;78.45;24.65;;;9.00;99.90;;;;;;4993532;28;20025;-92
2022/12/22 08:33:58;;;;;;;71.75;24.48;;;9.00;99.90;;;;;;4979547;28;20027;-92
2022/12/22 08:36:23;;;;;;;77.10;24.92;;;9.00;99.90;;;;;;4999949;28;20023;-93
2022/12/22 08:38:49;;;;;;;79.40;26.98;;;9.00;99.90;;;;;;4999983;28;20027;-92
2022/12/22 08:41:48;;;;;;;77.13;25.30;;;9.00;99.90;;;;;;4999591;28;20475;-92
2022/12/22 08:44:01;;;;;;;71.53;24.15;;;8.90;99.90;;;;;;5001610;28;20068;-92
2022/12/22 08:46:27;;;;;;;75.10;25.60;;;9.00;99.90;;;;;;4984925;28;20022;-91
2022/12/22 08:48:54;;;;;;;74.18;24.98;;;8.90;99.90;;;;;;5002809;28;20055;-92
2022/12/22 08:51:19;;;;;;;71.72;23.98;;;8.90;99.90;;;;;;4983676;28;20049;-92
2022/12/22 08:53:45;;;;;;;74.70;24.80;;;8.90;99.90;;;;;;4999724;28;20037;-92
2022/12/22 08:56:10;;;;;;;69.65;25.95;;;9.00;99.90;;;;;;4996381;28;20023;-92
2022/12/22 08:58:36;;;;;;;67.47;23.00;;;8.90;99.90;;;;;;4988728;28;20022;-94
2022/12/22 09:01:01;;;;;;;80.07;27.20;;;8.90;99.90;;;;;;5014602;28;20098;-93
2022/12/22 09:03:27;;;;;;;77.43;26.13;;;8.90;99.90;;;;;;5000075;28;20061;-94
2022/12/22 09:06:00;;;;;;;66.25;23.17;;;8.80;99.90;;;;;;5000140;28;20395;-93
2022/12/22 09:08:25;;;;;;;69.65;22.77;;;8.80;99.90;;;;;;4999262;28;20031;-92
2022/12/22 09:10:51;;;;;;;65.35;22.05;;;8.80;99.90;;;;;;4998922;28;20032;-94
2022/12/22 09:13:16;;;;;;;67.32;22.92;;;8.70;99.90;;;;;;5009433;28;20492;-93
2022/12/22 09:15:42;;;;;;;69.63;21.50;;;8.70;99.90;;;;;;4996499;28;20033;-93
2022/12/22 09:18:07;;;;;;;61.63;20.88;;;8.70;99.90;;;;;;4982837;28;20405;-91
2022/12/22 09:20:33;;;;;;;69.25;23.30;;;8.70;99.90;;;;;;5000042;28;20030;-93
2022/12/22 09:22:59;;;;;;;68.00;22.38;;;8.70;99.90;;;;;;5001157;28;20041;-92
2022/12/22 09:25:24;;;;;;;66.70;21.40;;;8.60;99.90;;;;;;4996586;28;20022;-93
2022/12/22 09:27:50;;;;;;;62.35;20.48;;;8.60;99.90;;;;;;4980479;28;20034;-91
2022/12/22 09:30:15;;;;;;;65.07;21.33;;;8.60;99.90;;;;;;4979091;28;20023;-93
2022/12/22 09:32:41;;;;;;;62.38;19.30;;;8.60;99.90;;;;;;4994313;28;20022;-92
2022/12/22 09:35:07;;;;;;;50.97;17.40;;;8.60;99.90;;;;;;4996744;28;20030;-93
2022/12/22 09:37:32;;;;;;;60.65;19.40;;;8.50;99.90;;;;;;4987264;28;20041;-93
2022/12/22 09:39:58;;;;;;;58.58;17.52;;;8.50;99.90;;;;;;4994061;28;20057;-92
2022/12/22 09:42:23;;;;;;;57.03;17.08;;;8.50;99.90;;;;;;4996987;28;20034;-91
2022/12/22 09:44:50;;;;;;;51.63;16.52;;;8.60;99.90;;;;;;4997750;28;20068;-93
2022/12/22 09:47:26;;;;;;;47.30;16.20;;;8.60;99.90;;;;;;4998279;28;20033;-92
2022/12/22 09:49:55;;;;;;;54.75;17.10;;;8.60;99.90;;;;;;4998551;28;20081;-93
2022/12/22 09:52:47;;;;;;;56.42;19.48;;;8.60;99.90;;;;;;4995650;28;20088;-92
2022/12/22 09:55:32;;;;;;;56.60;18.87;;;8.70;99.90;;;;;;4993547;28;20026;-93
2022/12/22 09:57:58;;;;;;;69.70;20.33;;;8.70;99.90;;;;;;4981878;28;20038;-93
2022/12/22 10:00:25;;;;;;;58.13;19.27;;;8.60;99.90;;;;;;4982693;28;20032;-92
2022/12/22 10:02:59;;;;;;;59.55;20.00;;;8.60;99.90;;;;;;4981696;28;20161;-93
2022/12/22 10:05:45;;;;;;;64.63;20.92;;;8.60;99.90;;;;;;4997585;28;20030;-93
2022/12/22 10:08:19;;;;;;;64.03;22.25;;;8.70;99.90;;;;;;4999715;28;20152;-92
2022/12/22 10:10:45;;;;;;;68.78;22.75;;;8.70;99.90;;;;;;4981228;28;20058;-93
2022/12/22 10:13:17;;;;;;;63.90;22.15;;;8.70;99.90;;;;;;4996919;28;20030;-92
2022/12/22 10:15:43;;;;;;;;;;;8.70;99.90;;;;;;5006129;28;20121;-93
2022/12/22 10:18:14;;;;;;;73.40;24.20;;;8.60;99.90;;;;;;4997659;28;19914;-92
2022/12/22 10:20:43;;;;;;;70.28;23.75;;;8.60;99.90;;;;;;4988092;28;20038;-93
2022/12/22 10:23:26;;;;;;;67.72;24.55;;;8.60;99.90;;;;;;4981640;28;20046;-92
2022/12/22 10:25:59;;;;;;;57.72;21.02;;;8.70;99.90;;;;;;4999029;28;20027;-94
2022/12/22 10:28:45;;;;;;;55.95;19.40;;;8.70;99.90;;;;;;4997967;28;20036;-93
2022/12/22 10:31:18;;;;;;;51.92;19.00;;;8.70;99.90;;;;;;4996600;28;20030;-92
2022/12/22 10:33:46;;;;;;;55.28;19.00;;;8.70;99.90;;;;;;4999406;28;20029;-93
2022/12/22 10:36:13;;;;;;;57.58;19.38;;;8.70;99.90;;;;;;4981219;28;20030;-92
2022/12/22 10:38:52;;;;;;;57.70;20.30;;;8.70;99.90;;;;;;4980154;28;20023;-94
2022/12/22 10:41:20;;;;;;;50.90;18.70;;;8.80;99.90;;;;;;4998359;28;20077;-93
2022/12/22 10:44:00;;;;;;;59.70;20.17;;;8.90;99.90;;;;;;4993748;28;20114;-93
2022/12/22 10:46:48;;;;;;;58.63;20.58;;;8.90;99.90;;;;;;4979351;28;20034;-92
2022/12/22 10:49:27;;;;;;;49.78;20.02;;;9.10;99.90;;;;;;4992555;28;20046;-93
2022/12/22 10:51:55;;;;;;;58.88;21.58;;;9.10;99.90;;;;;;4982611;28;20026;-93
2022/12/22 10:54:35;;;;;;;56.28;21.08;;;9.10;99.90;;;;;;4994284;28;20116;-92
2022/12/22 10:57:12;;;;;;;55.25;22.05;;;9.10;99.90;;;;;;4997023;28;20452;-93
2022/12/22 10:59:55;;;;;;;56.50;23.63;;;9.20;99.90;;;;;;4981528;28;20022;-93
2022/12/22 11:02:23;;;;;;;59.15;23.27;;;9.30;99.90;;;;;;4968106;28;20038;-93
2022/12/22 11:04:50;;;;;;;62.40;24.52;;;9.30;99.90;;;;;;4994590;28;20026;-93
2022/12/22 11:07:16;;;;;;;54.38;24.20;;;9.40;99.90;;;;;;4981523;28;20058;-92
2022/12/22 11:09:42;;;;;;;59.75;25.40;;;9.40;99.90;;;;;;5001203;28;20038;-94
2022/12/22 11:12:21;;;;;;;53.92;23.23;;;9.50;99.90;;;;;;4991353;28;20031;-93
2022/12/22 11:14:49;;;;;;;49.30;21.45;;;9.50;99.90;;;;;;4998510;28;20173;-93
2022/12/22 11:17:33;;;;;;;48.60;20.38;;;9.70;99.90;;;;;;5018700;28;20406;-93
2022/12/22 11:20:20;;;;;;;44.42;18.85;;;9.70;99.90;;;;;;4998983;28;20040;-93
2022/12/22 11:23:02;;;;;;;38.13;18.88;;;9.80;99.90;;;;;;5000700;28;20038;-93
2022/12/22 11:25:39;;;;;;;37.90;18.17;;;9.80;99.90;;;;;;4993378;28;20073;-93
2022/12/22 11:28:25;;;;;;;35.78;18.08;;;9.90;99.90;;;;;;4985620;28;20038;-92
2022/12/22 11:31:07;;;;;;;35.75;16.58;;;9.90;99.90;;;;;;4979482;28;20031;-93
2022/12/22 11:33:44;;;;;;;32.60;16.73;;;10.00;99.90;;;;;;4996096;28;20030;-92
2022/12/22 11:36:41;;;;;;;36.55;16.92;;;10.00;99.90;;;;;;4978535;28;20035;-94
2022/12/22 11:39:12;;;;;;;35.63;16.15;;;10.00;99.90;;;;;;4975190;28;20037;-92
2022/12/22 11:42:03;;;;;;;33.00;17.65;;;10.00;99.90;;;;;;4977599;28;20038;-93
2022/12/22 11:45:11;;;;;;;37.53;18.50;;;10.10;99.90;;;;;;4997166;28;20030;-92
2022/12/22 11:47:49;;;;;;;34.92;17.92;;;10.10;99.90;;;;;;4975905;28;20122;-94
2022/12/22 11:50:39;;;;;;;34.15;17.42;;;10.10;99.90;;;;;;4961680;28;20442;-93
2022/12/22 11:53:23;;;;;;;30.25;16.48;;;10.20;99.90;;;;;;4988232;28;20038;-94
2022/12/22 11:56:25;;;;;;;29.35;15.02;;;10.30;99.90;;;;;;4990209;28;20034;-93
2022/12/22 11:59:34;;;;;;;27.67;14.97;;;10.30;99.90;;;;;;4977732;28;20027;-92
2022/12/22 12:02:29;;;;;;;20.35;12.65;;;10.30;99.90;;;;;;4957715;28;20313;-93
2022/12/22 12:05:09;;;;;;;33.47;15.48;;;10.30;99.90;;;;;;4971279;28;20047;-94
2022/12/22 12:07:42;;;;;;;24.48;14.02;;;10.30;99.90;;;;;;4968688;28;20444;-93
2022/12/22 12:10:27;;;;;;;28.40;14.10;;;10.40;99.90;;;;;;4958651;28;20145;-91
2022/12/22 12:13:07;;;;;;;27.35;13.10;;;10.40;99.90;;;;;;4962835;28;20030;-93
2022/12/22 12:15:51;;;;;;;25.10;13.25;;;10.50;99.90;;;;;;4977601;28;20136;-92
2022/12/22 12:18:29;;;;;;;23.80;11.68;;;10.50;99.90;;;;;;4991673;28;20035;-93
2022/12/22 12:21:06;;;;;;;29.88;11.90;;;10.40;99.90;;;;;;4978324;28;20045;-94
2022/12/22 12:23:55;;;;;;;20.98;9.82;;;10.40;99.90;;;;;;4978921;28;20050;-91
2022/12/22 12:26:31;;;;;;;24.27;11.20;;;10.30;99.90;;;;;;4999786;28;20061;-92
2022/12/22 12:29:19;;;;;;;20.27;10.23;;;10.10;99.90;;;;;;4979936;28;20395;-92
2022/12/22 12:31:53;;;;;;;25.65;12.43;;;10.10;99.90;;;;;;4983014;28;20034;-93
2022/12/22 12:34:21;;;;;;;22.85;11.65;;;10.10;99.90;;;;;;4965637;28;20027;-93
2022/12/22 12:37:14;;;;;;;25.90;11.27;;;10.10;99.90;;;;;;4984048;28;20534;-93
2022/12/22 12:39:48;;;;;;;22.75;12.18;;;10.10;99.90;;;;;;5003275;28;20095;-92
2022/12/22 12:42:32;;;;;;;31.77;15.95;;;10.20;99.90;;;;;;4980178;28;20031;-93
2022/12/22 12:45:01;;;;;;;32.25;18.00;;;10.20;99.90;;;;;;5000041;28;20046;-93
2022/12/22 12:47:32;;;;;;;31.52;19.40;;;10.10;99.90;;;;;;4982214;28;20543;-90
2022/12/22 12:50:31;;;;;;;35.92;18.73;;;10.00;99.90;;;;;;4996680;28;20093;-93
2022/12/22 12:52:57;;;;;;;31.98;18.73;;;9.90;99.90;;;;;;4990719;28;20015;-92
2022/12/22 12:55:30;;;;;;;31.80;19.33;;;9.80;99.90;;;;;;4988560;28;20042;-93
2022/12/22 12:58:02;;;;;;;31.13;19.15;;;9.80;99.90;;;;;;4995113;28;20467;-93
2022/12/22 13:00:33;;;;;;;32.83;20.88;;;9.80;99.90;;;;;;4978124;28;20023;-94
2022/12/22 13:03:31;;;;;;;36.47;20.38;;;9.90;99.90;;;;;;4986465;28;20046;-93
2022/12/22 13:06:02;;;;;;;37.45;22.25;;;10.00;99.90;;;;;;4991684;28;20030;-93
2022/12/22 13:08:31;;;;;;;39.42;22.63;;;10.00;99.90;;;;;;4983050;28;20031;-92
2022/12/22 13:10:57;;;;;;;37.60;22.17;;;10.00;99.90;;;;;;4983997;28;20018;-93
2022/12/22 13:13:22;;;;;;;42.95;23.15;;;10.00;99.90;;;;;;4975818;28;22038;-92
2022/12/22 13:16:00;;;;;;;41.70;23.42;;;10.00;99.90;;;;;;4980095;28;20109;-94
2022/12/22 13:18:29;;;;;;;42.22;22.55;;;10.10;99.90;;;;;;4997427;28;20529;-94
2022/12/22 13:21:05;;;;;;;37.97;21.98;;;10.00;99.90;;;;;;4998127;28;20026;-95
2022/12/22 13:23:35;;;;;;;41.72;25.00;;;10.00;99.90;;;;;;4997292;28;20120;-92
2022/12/22 13:26:13;;;;;;;41.15;24.70;;;10.00;99.90;;;;;;4993681;28;20108;-94
2022/12/22 13:28:41;;;;;;;40.63;24.17;;;10.00;99.90;;;;;;5008236;28;20104;-91
2022/12/22 13:31:13;;;;;;;43.72;25.52;;;10.00;99.90;;;;;;5008788;28;20041;-93
2022/12/22 13:33:41;;;;;;;43.38;25.60;;;9.90;99.90;;;;;;5001495;28;20030;-92
2022/12/22 13:36:19;;;;;;;36.65;22.45;;;9.90;99.90;;;;;;4972573;28;20093;-93
2022/12/22 13:38:45;;;;;;;45.20;25.25;;;9.90;99.90;;;;;;4996975;28;20118;-93
2022/12/22 13:41:21;;;;;;;40.58;24.83;;;9.90;99.90;;;;;;4981595;28;20109;-95
2022/12/22 13:43:53;;;;;;;45.90;26.70;;;9.90;99.90;;;;;;4981321;28;20034;-94
2022/12/22 13:46:19;;;;;;;46.00;25.85;;;10.00;99.90;;;;;;4980304;28;20101;-93
2022/12/22 13:48:47;;;;;;;40.13;25.40;;;9.90;99.90;;;;;;4994545;28;20042;-92
2022/12/22 13:51:19;;;;;;;43.80;26.08;;;10.00;99.90;;;;;;4986240;28;20100;-94
2022/12/22 13:53:55;;;;;;;39.92;24.20;;;9.90;99.90;;;;;;4980749;28;20088;-94
2022/12/22 13:56:26;;;;;;;43.40;24.73;;;9.90;99.90;;;;;;4989793;28;20030;-93
2022/12/22 13:58:57;;;;;;;46.30;26.25;;;9.90;99.90;;;;;;4979732;28;20022;-93
2022/12/22 14:01:23;;;;;;;40.78;25.35;;;9.90;99.90;;;;;;4998081;28;20054;-94
2022/12/22 14:03:58;;;;;;;44.13;27.27;;;9.90;99.90;;;;;;4993231;28;20057;-92
2022/12/22 14:06:35;;;;;;;41.78;25.33;;;9.80;99.90;;;;;;4988775;28;20221;-93
2022/12/22 14:09:22;;;;;;;41.85;24.45;;;9.90;99.90;;;;;;4990553;28;20031;-94
2022/12/22 14:12:05;;;;;;;37.30;23.70;;;9.90;99.90;;;;;;5009611;28;20014;-94
2022/12/22 14:14:35;;;;;;;37.65;23.38;;;9.90;99.90;;;;;;4981333;28;20034;-93
2022/12/22 14:17:02;;;;;;;41.83;25.75;;;9.90;99.90;;;;;;4991698;28;20030;-93
2022/12/22 14:19:34;;;;;;;44.55;26.00;;;9.90;99.90;;;;;;4989758;28;20462;-94
2022/12/22 14:22:10;;;;;;;41.53;26.25;;;9.90;99.90;;;;;;4987785;28;20042;-94
2022/12/22 14:24:53;;;;;;;41.47;26.58;;;9.90;99.90;;;;;;4979740;28;20030;-93
2022/12/22 14:27:37;;;;;;;37.80;24.30;;;9.90;99.90;;;;;;4996283;28;20117;-92
2022/12/22 14:30:06;;;;;;;39.95;24.90;;;9.90;99.90;;;;;;4996274;28;20034;-92
2022/12/22 14:32:41;;;;;;;36.63;23.63;;;9.90;99.90;;;;;;4978585;28;20085;-93
2022/12/22 14:35:22;;;;;;;40.88;24.23;;;9.90;99.90;;;;;;4992203;28;20030;-92
2022/12/22 14:38:12;;;;;;;36.08;21.85;;;9.90;99.90;;;;;;4980263;28;20057;-93
2022/12/22 14:40:40;;;;;;;35.83;21.42;;;9.80;99.90;;;;;;4991305;28;20038;-90
2022/12/22 14:43:15;;;;;;;32.00;20.38;;;9.80;99.90;;;;;;4980624;28;20050;-93
2022/12/22 14:45:41;;;;;;;30.92;20.92;;;9.80;99.90;;;;;;4995056;28;20034;-93
2022/12/22 14:48:09;;;;;;;32.38;20.30;;;9.70;99.90;;;;;;4972693;28;20043;-91
2022/12/22 14:50:35;;;;;;;36.42;21.52;;;9.70;99.90;;;;;;4975912;28;20023;-91
2022/12/22 14:53:03;;;;;;;35.55;21.60;;;9.70;99.90;;;;;;4978191;28;20088;-91
2022/12/22 14:55:48;;;;;;;38.20;21.05;;;9.70;99.90;;;;;;4993511;28;20081;-92
2022/12/22 14:58:19;;;;;;;37.50;22.13;;;9.60;99.90;;;;;;4986576;28;20092;-92
2022/12/22 15:00:48;;;;;;;33.10;20.15;;;9.60;99.90;;;;;;4976781;28;20089;-91
2022/12/22 15:03:33;;;;;;;39.67;23.25;;;9.60;99.90;;;;;;4996018;28;20034;-90
2022/12/22 15:06:25;;;;;;;38.95;22.83;;;9.60;99.90;;;;;;4975101;28;20053;-91
2022/12/22 15:09:07;;;;;;;39.15;22.55;;;9.50;99.90;;;;;;4965057;28;20034;-91
2022/12/22 15:11:36;;;;;;;43.10;23.70;;;9.50;99.90;;;;;;4990322;28;20539;-90
2022/12/22 15:14:03;;;;;;;42.03;24.25;;;9.40;99.90;;;;;;4990982;28;20038;-90
2022/12/22 15:16:29;;;;;;;41.80;24.02;;;9.40;99.90;;;;;;4994624;28;20069;-89
2022/12/22 15:18:54;;;;;;;38.17;22.48;;;9.40;99.90;;;;;;4982580;28;20027;-89
2022/12/22 15:21:21;;;;;;;40.13;21.95;;;9.30;99.90;;;;;;4993482;28;20076;-91
2022/12/22 15:23:47;;;;;;;34.63;21.58;;;9.20;99.90;;;;;;4999030;28;20030;-88
2022/12/22 15:26:13;;;;;;;33.97;20.23;;;9.20;99.90;;;;;;4978569;28;20459;-88
2022/12/22 15:28:39;;;;;;;34.30;20.05;;;9.20;99.90;;;;;;4994703;28;20030;-91
2022/12/22 15:31:13;;;;;;;33.17;17.88;;;9.20;99.90;;;;;;4990901;28;20049;-90
2022/12/22 15:33:39;;;;;;;28.30;17.20;;;9.10;99.90;;;;;;4977892;28;20022;-89
2022/12/22 15:36:08;;;;;;;29.42;17.17;;;9.10;99.90;;;;;;4995594;28;20041;-93
2022/12/22 15:38:34;;;;;;;28.02;17.73;;;9.10;99.90;;;;;;4988925;28;20022;-89
2022/12/22 15:41:00;;;;;;;31.75;17.88;;;9.00;99.90;;;;;;5000979;28;20037;-89
2022/12/22 15:43:25;;;;;;;27.77;16.63;;;9.10;99.90;;;;;;4974578;28;20034;-88
2022/12/22 15:45:51;;;;;;;27.77;16.92;;;9.00;99.90;;;;;;4960268;28;20027;-88
2022/12/22 15:48:34;;;;;;;29.50;17.85;;;9.00;99.90;;;;;;4969908;28;20054;-89
2022/12/22 15:51:02;;;;;;;30.33;18.48;;;9.00;99.90;;;;;;4977317;28;20031;-89
2022/12/22 15:53:28;;;;;;;32.72;17.80;;;9.00;99.90;;;;;;4978648;28;20034;-89
2022/12/22 15:55:54;;;;;;;30.80;18.20;;;8.90;99.90;;;;;;4993060;28;20080;-89
2022/12/22 15:58:27;;;;;;;33.13;18.50;;;8.90;99.90;;;;;;4995436;28;20030;-89
2022/12/22 16:00:53;;;;;;;31.67;19.45;;;8.90;99.90;;;;;;4978330;28;20018;-88
2022/12/22 16:03:19;;;;;;;33.10;17.52;;;8.90;99.90;;;;;;4990440;28;20462;-89
2022/12/22 16:05:45;;;;;;;31.15;17.88;;;8.80;99.90;;;;;;4989360;28;20031;-89
2022/12/22 16:08:17;;;;;;;32.92;17.75;;;8.80;99.90;;;;;;4995882;28;20031;-89
2022/12/22 16:10:43;;;;;;;31.70;19.17;;;8.80;99.90;;;;;;4978470;28;20019;-90
2022/12/22 16:13:11;;;;;;;33.92;17.73;;;8.80;99.90;;;;;;4983740;28;20054;-90
2022/12/22 16:15:37;;;;;;;30.67;17.88;;;8.80;99.90;;;;;;4980645;28;20077;-88
2022/12/22 16:18:03;;;;;;;37.47;18.20;;;8.70;99.90;;;;;;4995086;28;20030;-88
2022/12/22 16:20:34;;;;;;;32.65;18.10;;;8.70;99.90;;;;;;4986168;28;20058;-89
2022/12/22 16:23:01;;;;;;;36.00;18.75;;;8.70;99.90;;;;;;4975382;28;20035;-90
2022/12/22 16:25:32;;;;;;;33.35;19.00;;;8.70;99.90;;;;;;4992792;28;20709;-88
2022/12/22 16:28:02;;;;;;;33.60;19.05;;;8.70;99.90;;;;;;4992220;28;20027;-91
2022/12/22 16:30:29;;;;;;;31.17;18.17;;;8.60;99.90;;;;;;4979044;28;20033;-89
2022/12/22 16:32:55;;;;;;;35.53;19.13;;;8.70;99.90;;;;;;4982528;28;20048;-88
2022/12/22 16:35:23;;;;;;;32.95;17.92;;;8.60;99.90;;;;;;4989574;28;20125;-90